sensor_id;sensor_type;location;lat;lon;timestamp;P1;durP1;ratioP1;P2;durP2;ratioP2
8500;SDS011;4288;48.484;10.024;2024-01-10T00:00:18;24.90;;;9.33;;
8500;SDS011;4288;48.484;10.024;2024-01-10T00:02:46;23.63;;;10.73;;
8500;SDS011;4288;48.484;10.024;2024-01-10T00:05:13;20.50;;;9.07;;
8500;SDS011;4288;48.484;10.024;2024-01-10T00:07:41;27.90;;;11.23;;
8500;SDS011;4288;48.484;10.024;2024-01-10T00:10:08;32.40;;;11.30;;
8500;SDS011;4288;48.484;10.024;2024-01-10T00:12:37;29.77;;;10.90;;
8500;SDS011;4288;48.484;10.024;2024-01-10T00:15:05;21.13;;;9.70;;
8500;SDS011;4288;48.484;10.024;2024-01-10T00:17:33;30.37;;;10.00;;
8500;SDS011;4288;48.484;10.024;2024-01-10T00:20:00;19.30;;;9.43;;
8500;SDS011;4288;48.484;10.024;2024-01-10T00:22:27;17.43;;;8.90;;
8500;SDS011;4288;48.484;10.024;2024-01-10T00:24:55;22.60;;;10.67;;
8500;SDS011;4288;48.484;10.024;2024-01-10T00:27:22;20.70;;;9.60;;
8500;SDS011;4288;48.484;10.024;2024-01-10T00:29:51;24.93;;;9.40;;
8500;SDS011;4288;48.484;10.024;2024-01-10T00:32:20;23.33;;;9.17;;
8500;SDS011;4288;48.484;10.024;2024-01-10T00:34:48;23.73;;;10.90;;
8500;SDS011;4288;48.484;10.024;2024-01-10T00:37:15;21.07;;;9.50;;
8500;SDS011;4288;48.484;10.024;2024-01-10T00:39:42;23.57;;;10.43;;
8500;SDS011;4288;48.484;10.024;2024-01-10T00:42:10;28.27;;;9.90;;
8500;SDS011;4288;48.484;10.024;2024-01-10T00:44:37;26.17;;;11.60;;
8500;SDS011;4288;48.484;10.024;2024-01-10T00:47:06;21.73;;;8.57;;
8500;SDS011;4288;48.484;10.024;2024-01-10T00:49:33;27.27;;;12.33;;
8500;SDS011;4288;48.484;10.024;2024-01-10T00:52:01;21.87;;;9.20;;
8500;SDS011;4288;48.484;10.024;2024-01-10T00:54:29;25.07;;;11.40;;
8500;SDS011;4288;48.484;10.024;2024-01-10T00:56:56;31.80;;;10.67;;
8500;SDS011;4288;48.484;10.024;2024-01-10T00:59:23;23.07;;;9.60;;
8500;SDS011;4288;48.484;10.024;2024-01-10T01:01:51;23.00;;;9.40;;
8500;SDS011;4288;48.484;10.024;2024-01-10T01:04:20;21.50;;;9.20;;
8500;SDS011;4288;48.484;10.024;2024-01-10T01:06:47;20.80;;;9.83;;
8500;SDS011;4288;48.484;10.024;2024-01-10T01:09:14;25.00;;;8.77;;
8500;SDS011;4288;48.484;10.024;2024-01-10T01:11:42;20.57;;;8.60;;
8500;SDS011;4288;48.484;10.024;2024-01-10T01:14:09;20.40;;;9.47;;
8500;SDS011;4288;48.484;10.024;2024-01-10T01:16:37;33.27;;;9.83;;
8500;SDS011;4288;48.484;10.024;2024-01-10T01:19:04;25.60;;;8.60;;
8500;SDS011;4288;48.484;10.024;2024-01-10T01:21:33;24.63;;;9.80;;
8500;SDS011;4288;48.484;10.024;2024-01-10T01:24:00;24.00;;;10.67;;
8500;SDS011;4288;48.484;10.024;2024-01-10T01:26:28;19.60;;;8.70;;
8500;SDS011;4288;48.484;10.024;2024-01-10T01:28:56;29.73;;;11.20;;
8500;SDS011;4288;48.484;10.024;2024-01-10T01:31:23;19.53;;;8.60;;
8500;SDS011;4288;48.484;10.024;2024-01-10T01:33:50;24.07;;;10.53;;
8500;SDS011;4288;48.484;10.024;2024-01-10T01:36:18;22.27;;;10.37;;
8500;SDS011;4288;48.484;10.024;2024-01-10T01:38:47;24.40;;;7.93;;
8500;SDS011;4288;48.484;10.024;2024-01-10T01:41:14;22.70;;;9.17;;
8500;SDS011;4288;48.484;10.024;2024-01-10T01:43:42;27.90;;;10.60;;
8500;SDS011;4288;48.484;10.024;2024-01-10T01:46:11;21.47;;;9.60;;
8500;SDS011;4288;48.484;10.024;2024-01-10T01:48:39;23.43;;;9.27;;
8500;SDS011;4288;48.484;10.024;2024-01-10T01:51:07;23.13;;;9.93;;
8500;SDS011;4288;48.484;10.024;2024-01-10T01:53:37;24.63;;;10.50;;
8500;SDS011;4288;48.484;10.024;2024-01-10T01:56:07;19.77;;;8.20;;
8500;SDS011;4288;48.484;10.024;2024-01-10T01:58:36;31.13;;;10.30;;
8500;SDS011;4288;48.484;10.024;2024-01-10T02:01:04;31.80;;;11.83;;
8500;SDS011;4288;48.484;10.024;2024-01-10T02:03:31;25.87;;;10.33;;
8500;SDS011;4288;48.484;10.024;2024-01-10T02:05:58;19.33;;;9.10;;
8500;SDS011;4288;48.484;10.024;2024-01-10T02:08:28;26.90;;;9.73;;
8500;SDS011;4288;48.484;10.024;2024-01-10T02:10:56;25.43;;;10.57;;
8500;SDS011;4288;48.484;10.024;2024-01-10T02:13:25;24.37;;;9.27;;
8500;SDS011;4288;48.484;10.024;2024-01-10T02:15:53;23.90;;;7.30;;
8500;SDS011;4288;48.484;10.024;2024-01-10T02:18:21;23.37;;;9.90;;
8500;SDS011;4288;48.484;10.024;2024-01-10T02:20:49;21.67;;;9.47;;
8500;SDS011;4288;48.484;10.024;2024-01-10T02:23:17;20.90;;;8.53;;
8500;SDS011;4288;48.484;10.024;2024-01-10T02:25:45;26.20;;;9.77;;
8500;SDS011;4288;48.484;10.024;2024-01-10T02:28:13;22.60;;;9.23;;
8500;SDS011;4288;48.484;10.024;2024-01-10T02:30:40;21.60;;;8.57;;
8500;SDS011;4288;48.484;10.024;2024-01-10T02:33:08;18.70;;;7.70;;
8500;SDS011;4288;48.484;10.024;2024-01-10T02:35:35;21.20;;;8.73;;
8500;SDS011;4288;48.484;10.024;2024-01-10T02:38:03;29.30;;;7.47;;
8500;SDS011;4288;48.484;10.024;2024-01-10T02:40:31;18.33;;;6.80;;
8500;SDS011;4288;48.484;10.024;2024-01-10T02:43:00;20.60;;;8.00;;
8500;SDS011;4288;48.484;10.024;2024-01-10T02:45:28;24.70;;;8.73;;
8500;SDS011;4288;48.484;10.024;2024-01-10T02:47:55;26.20;;;8.80;;
8500;SDS011;4288;48.484;10.024;2024-01-10T02:50:22;21.03;;;7.37;;
8500;SDS011;4288;48.484;10.024;2024-01-10T02:52:50;19.97;;;7.60;;
8500;SDS011;4288;48.484;10.024;2024-01-10T02:55:17;20.90;;;7.83;;
8500;SDS011;4288;48.484;10.024;2024-01-10T02:57:44;27.07;;;8.57;;
8500;SDS011;4288;48.484;10.024;2024-01-10T03:00:13;19.80;;;7.73;;
8500;SDS011;4288;48.484;10.024;2024-01-10T03:02:41;26.67;;;9.03;;
8500;SDS011;4288;48.484;10.024;2024-01-10T03:05:08;21.97;;;8.03;;
8500;SDS011;4288;48.484;10.024;2024-01-10T03:07:36;22.47;;;9.67;;
8500;SDS011;4288;48.484;10.024;2024-01-10T03:10:03;18.40;;;7.80;;
8500;SDS011;4288;48.484;10.024;2024-01-10T03:12:31;23.57;;;9.10;;
8500;SDS011;4288;48.484;10.024;2024-01-10T03:15:02;22.63;;;8.20;;
8500;SDS011;4288;48.484;10.024;2024-01-10T03:17:31;25.43;;;8.97;;
8500;SDS011;4288;48.484;10.024;2024-01-10T03:20:01;23.83;;;8.17;;
8500;SDS011;4288;48.484;10.024;2024-01-10T03:22:29;25.97;;;8.73;;
8500;SDS011;4288;48.484;10.024;2024-01-10T03:24:57;26.97;;;9.20;;
8500;SDS011;4288;48.484;10.024;2024-01-10T03:27:24;22.03;;;9.77;;
8500;SDS011;4288;48.484;10.024;2024-01-10T03:29:52;23.37;;;9.60;;
8500;SDS011;4288;48.484;10.024;2024-01-10T03:32:19;22.83;;;9.17;;
8500;SDS011;4288;48.484;10.024;2024-01-10T03:34:48;20.13;;;7.47;;
8500;SDS011;4288;48.484;10.024;2024-01-10T03:37:16;20.60;;;8.73;;
8500;SDS011;4288;48.484;10.024;2024-01-10T03:39:44;19.30;;;8.10;;
8500;SDS011;4288;48.484;10.024;2024-01-10T03:42:11;22.40;;;9.77;;
8500;SDS011;4288;48.484;10.024;2024-01-10T03:44:40;20.27;;;7.93;;
8500;SDS011;4288;48.484;10.024;2024-01-10T03:47:08;18.27;;;7.93;;
8500;SDS011;4288;48.484;10.024;2024-01-10T03:49:35;18.97;;;7.37;;
8500;SDS011;4288;48.484;10.024;2024-01-10T03:52:04;21.40;;;9.10;;
8500;SDS011;4288;48.484;10.024;2024-01-10T03:54:32;25.13;;;8.73;;
8500;SDS011;4288;48.484;10.024;2024-01-10T03:56:59;23.17;;;9.70;;
8500;SDS011;4288;48.484;10.024;2024-01-10T03:59:27;20.83;;;8.63;;
8500;SDS011;4288;48.484;10.024;2024-01-10T04:01:54;25.00;;;9.40;;
8500;SDS011;4288;48.484;10.024;2024-01-10T04:04:21;20.57;;;9.20;;
8500;SDS011;4288;48.484;10.024;2024-01-10T04:06:49;32.10;;;10.63;;
8500;SDS011;4288;48.484;10.024;2024-01-10T04:09:18;24.17;;;9.40;;
8500;SDS011;4288;48.484;10.024;2024-01-10T04:11:45;26.27;;;8.83;;
8500;SDS011;4288;48.484;10.024;2024-01-10T04:14:12;24.93;;;9.97;;
8500;SDS011;4288;48.484;10.024;2024-01-10T04:16:40;17.80;;;8.77;;
8500;SDS011;4288;48.484;10.024;2024-01-10T04:19:07;20.50;;;8.87;;
8500;SDS011;4288;48.484;10.024;2024-01-10T04:21:35;22.77;;;8.37;;
8500;SDS011;4288;48.484;10.024;2024-01-10T04:24:02;23.37;;;8.97;;
8500;SDS011;4288;48.484;10.024;2024-01-10T04:26:31;25.97;;;7.83;;
8500;SDS011;4288;48.484;10.024;2024-01-10T04:28:59;33.57;;;9.30;;
8500;SDS011;4288;48.484;10.024;2024-01-10T04:31:26;26.17;;;9.13;;
8500;SDS011;4288;48.484;10.024;2024-01-10T04:33:54;20.80;;;7.90;;
8500;SDS011;4288;48.484;10.024;2024-01-10T04:36:21;26.27;;;9.10;;
8500;SDS011;4288;48.484;10.024;2024-01-10T04:38:48;27.10;;;10.63;;
8500;SDS011;4288;48.484;10.024;2024-01-10T04:41:16;21.67;;;8.63;;
8500;SDS011;4288;48.484;10.024;2024-01-10T04:43:45;19.80;;;8.80;;
8500;SDS011;4288;48.484;10.024;2024-01-10T04:46:12;30.97;;;9.60;;
8500;SDS011;4288;48.484;10.024;2024-01-10T04:48:40;18.13;;;7.67;;
8500;SDS011;4288;48.484;10.024;2024-01-10T04:51:07;23.43;;;8.60;;
8500;SDS011;4288;48.484;10.024;2024-01-10T04:53:34;22.83;;;9.57;;
8500;SDS011;4288;48.484;10.024;2024-01-10T04:56:02;20.90;;;8.73;;
8500;SDS011;4288;48.484;10.024;2024-01-10T04:58:29;23.93;;;11.10;;
8500;SDS011;4288;48.484;10.024;2024-01-10T05:00:59;28.63;;;10.50;;
8500;SDS011;4288;48.484;10.024;2024-01-10T05:03:26;18.77;;;10.47;;
8500;SDS011;4288;48.484;10.024;2024-01-10T05:05:54;22.87;;;9.00;;
8500;SDS011;4288;48.484;10.024;2024-01-10T05:08:21;24.33;;;9.33;;
8500;SDS011;4288;48.484;10.024;2024-01-10T05:10:49;21.57;;;9.80;;
8500;SDS011;4288;48.484;10.024;2024-01-10T05:13:16;30.90;;;11.47;;
8500;SDS011;4288;48.484;10.024;2024-01-10T05:15:44;25.63;;;9.40;;
8500;SDS011;4288;48.484;10.024;2024-01-10T05:18:12;17.90;;;7.97;;
8500;SDS011;4288;48.484;10.024;2024-01-10T05:20:40;23.33;;;8.97;;
8500;SDS011;4288;48.484;10.024;2024-01-10T05:23:07;21.43;;;10.20;;
8500;SDS011;4288;48.484;10.024;2024-01-10T05:25:34;23.63;;;10.10;;
8500;SDS011;4288;48.484;10.024;2024-01-10T05:28:02;23.27;;;9.40;;
8500;SDS011;4288;48.484;10.024;2024-01-10T05:30:30;28.87;;;10.20;;
8500;SDS011;4288;48.484;10.024;2024-01-10T05:32:58;28.47;;;10.83;;
8500;SDS011;4288;48.484;10.024;2024-01-10T05:35:26;25.63;;;10.20;;
8500;SDS011;4288;48.484;10.024;2024-01-10T05:37:54;22.07;;;9.77;;
8500;SDS011;4288;48.484;10.024;2024-01-10T05:40:21;29.97;;;12.50;;
8500;SDS011;4288;48.484;10.024;2024-01-10T05:42:49;32.50;;;11.90;;
8500;SDS011;4288;48.484;10.024;2024-01-10T05:45:16;34.43;;;12.63;;
8500;SDS011;4288;48.484;10.024;2024-01-10T05:47:44;22.83;;;10.60;;
8500;SDS011;4288;48.484;10.024;2024-01-10T05:50:13;24.80;;;9.07;;
8500;SDS011;4288;48.484;10.024;2024-01-10T05:52:42;25.10;;;11.17;;
8500;SDS011;4288;48.484;10.024;2024-01-10T05:55:09;26.07;;;10.30;;
8500;SDS011;4288;48.484;10.024;2024-01-10T05:57:37;37.90;;;11.43;;
8500;SDS011;4288;48.484;10.024;2024-01-10T06:00:05;31.93;;;11.53;;
8500;SDS011;4288;48.484;10.024;2024-01-10T06:02:34;35.20;;;11.20;;
8500;SDS011;4288;48.484;10.024;2024-01-10T06:05:04;21.30;;;8.10;;
8500;SDS011;4288;48.484;10.024;2024-01-10T06:07:32;28.27;;;11.67;;
8500;SDS011;4288;48.484;10.024;2024-01-10T06:10:01;19.23;;;10.60;;
8500;SDS011;4288;48.484;10.024;2024-01-10T06:12:28;24.10;;;10.30;;
8500;SDS011;4288;48.484;10.024;2024-01-10T06:14:56;31.70;;;10.70;;
8500;SDS011;4288;48.484;10.024;2024-01-10T06:17:23;26.30;;;10.63;;
8500;SDS011;4288;48.484;10.024;2024-01-10T06:19:51;26.93;;;11.50;;
8500;SDS011;4288;48.484;10.024;2024-01-10T06:22:18;31.67;;;11.17;;
8500;SDS011;4288;48.484;10.024;2024-01-10T06:24:50;25.97;;;9.80;;
8500;SDS011;4288;48.484;10.024;2024-01-10T06:27:19;32.73;;;12.33;;
8500;SDS011;4288;48.484;10.024;2024-01-10T06:29:46;27.30;;;11.10;;
8500;SDS011;4288;48.484;10.024;2024-01-10T06:32:13;28.17;;;11.73;;
8500;SDS011;4288;48.484;10.024;2024-01-10T06:34:41;27.87;;;10.97;;
8500;SDS011;4288;48.484;10.024;2024-01-10T06:37:08;31.10;;;11.77;;
8500;SDS011;4288;48.484;10.024;2024-01-10T06:39:36;30.97;;;11.83;;
8500;SDS011;4288;48.484;10.024;2024-01-10T06:42:04;32.63;;;12.00;;
8500;SDS011;4288;48.484;10.024;2024-01-10T06:44:34;28.50;;;10.40;;
8500;SDS011;4288;48.484;10.024;2024-01-10T06:47:02;23.33;;;9.50;;
8500;SDS011;4288;48.484;10.024;2024-01-10T06:49:30;25.70;;;10.97;;
8500;SDS011;4288;48.484;10.024;2024-01-10T06:51:57;29.13;;;10.80;;
8500;SDS011;4288;48.484;10.024;2024-01-10T06:54:25;31.30;;;11.63;;
8500;SDS011;4288;48.484;10.024;2024-01-10T06:56:52;23.97;;;10.63;;
8500;SDS011;4288;48.484;10.024;2024-01-10T06:59:20;24.50;;;10.50;;
8500;SDS011;4288;48.484;10.024;2024-01-10T07:01:52;25.50;;;11.50;;
8500;SDS011;4288;48.484;10.024;2024-01-10T07:04:21;34.77;;;11.27;;
8500;SDS011;4288;48.484;10.024;2024-01-10T07:06:49;26.00;;;12.47;;
8500;SDS011;4288;48.484;10.024;2024-01-10T07:09:16;37.07;;;13.47;;
8500;SDS011;4288;48.484;10.024;2024-01-10T07:11:45;41.80;;;14.03;;
8500;SDS011;4288;48.484;10.024;2024-01-10T07:14:13;29.20;;;11.00;;
8500;SDS011;4288;48.484;10.024;2024-01-10T07:16:41;25.73;;;10.87;;
8500;SDS011;4288;48.484;10.024;2024-01-10T07:19:12;33.73;;;12.13;;
8500;SDS011;4288;48.484;10.024;2024-01-10T07:21:40;26.83;;;10.70;;
8500;SDS011;4288;48.484;10.024;2024-01-10T07:24:07;27.13;;;11.90;;
8500;SDS011;4288;48.484;10.024;2024-01-10T07:26:35;34.20;;;12.60;;
8500;SDS011;4288;48.484;10.024;2024-01-10T07:29:03;26.73;;;10.13;;
8500;SDS011;4288;48.484;10.024;2024-01-10T07:31:33;29.57;;;12.70;;
8500;SDS011;4288;48.484;10.024;2024-01-10T07:34:00;34.03;;;12.20;;
8500;SDS011;4288;48.484;10.024;2024-01-10T07:36:31;30.80;;;13.27;;
8500;SDS011;4288;48.484;10.024;2024-01-10T07:38:59;31.73;;;11.60;;
8500;SDS011;4288;48.484;10.024;2024-01-10T07:41:27;31.10;;;11.40;;
8500;SDS011;4288;48.484;10.024;2024-01-10T07:43:53;37.93;;;11.83;;
8500;SDS011;4288;48.484;10.024;2024-01-10T07:46:21;33.53;;;14.80;;
8500;SDS011;4288;48.484;10.024;2024-01-10T07:48:48;34.27;;;15.50;;
8500;SDS011;4288;48.484;10.024;2024-01-10T07:51:16;32.27;;;12.17;;
8500;SDS011;4288;48.484;10.024;2024-01-10T07:53:46;41.80;;;15.10;;
8500;SDS011;4288;48.484;10.024;2024-01-10T07:56:13;31.80;;;12.90;;
8500;SDS011;4288;48.484;10.024;2024-01-10T07:58:41;33.07;;;13.53;;
8500;SDS011;4288;48.484;10.024;2024-01-10T08:01:08;32.97;;;10.97;;
8500;SDS011;4288;48.484;10.024;2024-01-10T08:03:36;30.63;;;13.10;;
8500;SDS011;4288;48.484;10.024;2024-01-10T08:06:04;40.10;;;14.47;;
8500;SDS011;4288;48.484;10.024;2024-01-10T08:08:32;28.73;;;12.43;;
8500;SDS011;4288;48.484;10.024;2024-01-10T08:11:01;29.53;;;11.90;;
8500;SDS011;4288;48.484;10.024;2024-01-10T08:13:28;23.43;;;11.13;;
8500;SDS011;4288;48.484;10.024;2024-01-10T08:15:55;30.97;;;11.27;;
8500;SDS011;4288;48.484;10.024;2024-01-10T08:18:23;34.63;;;12.97;;
8500;SDS011;4288;48.484;10.024;2024-01-10T08:20:50;20.03;;;9.30;;
8500;SDS011;4288;48.484;10.024;2024-01-10T08:23:18;32.30;;;11.07;;
8500;SDS011;4288;48.484;10.024;2024-01-10T08:25:45;31.10;;;10.30;;
8500;SDS011;4288;48.484;10.024;2024-01-10T08:28:14;26.67;;;10.70;;
8500;SDS011;4288;48.484;10.024;2024-01-10T08:30:41;22.10;;;8.83;;
8500;SDS011;4288;48.484;10.024;2024-01-10T08:33:09;23.30;;;10.30;;
8500;SDS011;4288;48.484;10.024;2024-01-10T08:35:36;27.33;;;10.60;;
8500;SDS011;4288;48.484;10.024;2024-01-10T08:38:04;30.27;;;10.57;;
8500;SDS011;4288;48.484;10.024;2024-01-10T08:40:32;26.00;;;10.57;;
8500;SDS011;4288;48.484;10.024;2024-01-10T08:43:00;25.60;;;9.13;;
8500;SDS011;4288;48.484;10.024;2024-01-10T08:45:29;31.03;;;13.73;;
8500;SDS011;4288;48.484;10.024;2024-01-10T08:47:56;29.97;;;10.80;;
8500;SDS011;4288;48.484;10.024;2024-01-10T08:50:24;22.93;;;9.63;;
8500;SDS011;4288;48.484;10.024;2024-01-10T08:52:51;30.10;;;10.43;;
8500;SDS011;4288;48.484;10.024;2024-01-10T08:55:19;26.00;;;11.03;;
8500;SDS011;4288;48.484;10.024;2024-01-10T08:57:46;21.50;;;9.83;;
8500;SDS011;4288;48.484;10.024;2024-01-10T09:00:14;26.80;;;10.97;;
8500;SDS011;4288;48.484;10.024;2024-01-10T09:02:43;28.23;;;10.37;;
8500;SDS011;4288;48.484;10.024;2024-01-10T09:05:11;30.57;;;11.80;;
8500;SDS011;4288;48.484;10.024;2024-01-10T09:07:38;21.57;;;10.37;;
8500;SDS011;4288;48.484;10.024;2024-01-10T09:10:07;25.97;;;11.20;;
8500;SDS011;4288;48.484;10.024;2024-01-10T09:12:34;24.70;;;11.00;;
8500;SDS011;4288;48.484;10.024;2024-01-10T09:15:02;21.77;;;11.10;;
8500;SDS011;4288;48.484;10.024;2024-01-10T09:17:30;23.70;;;10.40;;
8500;SDS011;4288;48.484;10.024;2024-01-10T09:19:58;30.53;;;11.67;;
8500;SDS011;4288;48.484;10.024;2024-01-10T09:22:27;29.23;;;11.63;;
8500;SDS011;4288;48.484;10.024;2024-01-10T09:24:55;23.80;;;11.67;;
8500;SDS011;4288;48.484;10.024;2024-01-10T09:27:24;29.93;;;13.23;;
8500;SDS011;4288;48.484;10.024;2024-01-10T09:29:52;31.70;;;12.47;;
8500;SDS011;4288;48.484;10.024;2024-01-10T09:32:19;24.87;;;12.07;;
8500;SDS011;4288;48.484;10.024;2024-01-10T09:34:47;33.00;;;13.27;;
8500;SDS011;4288;48.484;10.024;2024-01-10T09:37:16;29.97;;;13.20;;
8500;SDS011;4288;48.484;10.024;2024-01-10T09:39:43;27.53;;;10.83;;
8500;SDS011;4288;48.484;10.024;2024-01-10T09:42:10;27.60;;;10.00;;
8500;SDS011;4288;48.484;10.024;2024-01-10T09:44:40;31.67;;;13.43;;
8500;SDS011;4288;48.484;10.024;2024-01-10T09:47:07;32.13;;;11.90;;
8500;SDS011;4288;48.484;10.024;2024-01-10T09:49:37;26.17;;;10.63;;
8500;SDS011;4288;48.484;10.024;2024-01-10T09:52:04;29.47;;;11.83;;
8500;SDS011;4288;48.484;10.024;2024-01-10T09:54:38;27.13;;;11.63;;
8500;SDS011;4288;48.484;10.024;2024-01-10T09:57:08;25.67;;;11.90;;
8500;SDS011;4288;48.484;10.024;2024-01-10T09:59:36;29.73;;;14.17;;
8500;SDS011;4288;48.484;10.024;2024-01-10T10:02:03;32.40;;;13.60;;
8500;SDS011;4288;48.484;10.024;2024-01-10T10:04:31;31.83;;;11.53;;
8500;SDS011;4288;48.484;10.024;2024-01-10T10:06:58;31.33;;;12.17;;
8500;SDS011;4288;48.484;10.024;2024-01-10T10:09:27;36.43;;;13.60;;
8500;SDS011;4288;48.484;10.024;2024-01-10T10:11:57;31.50;;;12.73;;
8500;SDS011;4288;48.484;10.024;2024-01-10T10:14:25;31.70;;;12.53;;
8500;SDS011;4288;48.484;10.024;2024-01-10T10:16:56;30.20;;;13.20;;
8500;SDS011;4288;48.484;10.024;2024-01-10T10:19:40;32.30;;;13.40;;
8500;SDS011;4288;48.484;10.024;2024-01-10T10:22:07;28.60;;;12.10;;
8500;SDS011;4288;48.484;10.024;2024-01-10T10:24:35;24.87;;;11.20;;
8500;SDS011;4288;48.484;10.024;2024-01-10T10:27:08;27.97;;;10.47;;
8500;SDS011;4288;48.484;10.024;2024-01-10T10:29:37;27.77;;;14.23;;
8500;SDS011;4288;48.484;10.024;2024-01-10T10:32:05;25.33;;;12.30;;
8500;SDS011;4288;48.484;10.024;2024-01-10T10:34:33;27.53;;;13.23;;
8500;SDS011;4288;48.484;10.024;2024-01-10T10:37:01;29.00;;;12.27;;
8500;SDS011;4288;48.484;10.024;2024-01-10T10:39:29;26.60;;;11.97;;
8500;SDS011;4288;48.484;10.024;2024-01-10T10:41:56;24.37;;;10.37;;
8500;SDS011;4288;48.484;10.024;2024-01-10T10:44:25;31.40;;;13.23;;
8500;SDS011;4288;48.484;10.024;2024-01-10T10:46:55;30.90;;;13.33;;
8500;SDS011;4288;48.484;10.024;2024-01-10T10:49:31;30.90;;;11.70;;
8500;SDS011;4288;48.484;10.024;2024-01-10T10:51:59;31.50;;;12.27;;
8500;SDS011;4288;48.484;10.024;2024-01-10T10:54:28;32.27;;;13.80;;
8500;SDS011;4288;48.484;10.024;2024-01-10T10:56:57;26.00;;;12.70;;
8500;SDS011;4288;48.484;10.024;2024-01-10T10:59:29;36.43;;;14.57;;
8500;SDS011;4288;48.484;10.024;2024-01-10T11:02:00;31.60;;;12.90;;
8500;SDS011;4288;48.484;10.024;2024-01-10T11:04:27;28.23;;;11.50;;
8500;SDS011;4288;48.484;10.024;2024-01-10T11:06:55;25.60;;;10.77;;
8500;SDS011;4288;48.484;10.024;2024-01-10T11:09:22;25.33;;;11.17;;
8500;SDS011;4288;48.484;10.024;2024-01-10T11:11:56;31.50;;;14.07;;
8500;SDS011;4288;48.484;10.024;2024-01-10T11:14:51;43.27;;;15.60;;
8500;SDS011;4288;48.484;10.024;2024-01-10T11:17:39;32.87;;;14.13;;
8500;SDS011;4288;48.484;10.024;2024-01-10T11:20:29;28.73;;;12.80;;
8500;SDS011;4288;48.484;10.024;2024-01-10T11:23:19;25.40;;;11.00;;
8500;SDS011;4288;48.484;10.024;2024-01-10T11:26:02;34.17;;;12.80;;
8500;SDS011;4288;48.484;10.024;2024-01-10T11:28:30;32.77;;;13.07;;
8500;SDS011;4288;48.484;10.024;2024-01-10T11:30:59;38.17;;;15.47;;
8500;SDS011;4288;48.484;10.024;2024-01-10T11:33:30;29.30;;;12.57;;
8500;SDS011;4288;48.484;10.024;2024-01-10T11:36:08;30.13;;;13.57;;
8500;SDS011;4288;48.484;10.024;2024-01-10T11:38:42;31.60;;;13.10;;
8500;SDS011;4288;48.484;10.024;2024-01-10T11:41:15;30.07;;;12.70;;
8500;SDS011;4288;48.484;10.024;2024-01-10T11:43:46;29.97;;;13.03;;
8500;SDS011;4288;48.484;10.024;2024-01-10T11:46:54;35.50;;;15.10;;
8500;SDS011;4288;48.484;10.024;2024-01-10T11:49:23;26.77;;;13.13;;
8500;SDS011;4288;48.484;10.024;2024-01-10T11:51:53;28.03;;;12.63;;
8500;SDS011;4288;48.484;10.024;2024-01-10T11:54:41;30.23;;;13.00;;
8500;SDS011;4288;48.484;10.024;2024-01-10T11:57:13;30.20;;;12.40;;
8500;SDS011;4288;48.484;10.024;2024-01-10T11:59:45;32.37;;;12.93;;
8500;SDS011;4288;48.484;10.024;2024-01-10T12:02:15;31.67;;;13.07;;
8500;SDS011;4288;48.484;10.024;2024-01-10T12:04:43;25.87;;;12.50;;
8500;SDS011;4288;48.484;10.024;2024-01-10T12:07:11;32.10;;;12.13;;
8500;SDS011;4288;48.484;10.024;2024-01-10T12:09:39;31.70;;;14.20;;
8500;SDS011;4288;48.484;10.024;2024-01-10T12:12:08;28.23;;;11.67;;
8500;SDS011;4288;48.484;10.024;2024-01-10T12:14:36;29.83;;;12.37;;
8500;SDS011;4288;48.484;10.024;2024-01-10T12:17:04;27.90;;;12.47;;
8500;SDS011;4288;48.484;10.024;2024-01-10T12:19:35;20.33;;;10.13;;
8500;SDS011;4288;48.484;10.024;2024-01-10T12:22:02;30.80;;;12.60;;
8500;SDS011;4288;48.484;10.024;2024-01-10T12:24:31;25.57;;;14.03;;
8500;SDS011;4288;48.484;10.024;2024-01-10T12:26:59;28.17;;;12.47;;
8500;SDS011;4288;48.484;10.024;2024-01-10T12:29:26;31.00;;;12.50;;
8500;SDS011;4288;48.484;10.024;2024-01-10T12:31:53;25.70;;;13.37;;
8500;SDS011;4288;48.484;10.024;2024-01-10T12:34:21;26.37;;;11.87;;
8500;SDS011;4288;48.484;10.024;2024-01-10T12:36:50;30.23;;;12.97;;
8500;SDS011;4288;48.484;10.024;2024-01-10T12:39:21;24.70;;;12.80;;
8500;SDS011;4288;48.484;10.024;2024-01-10T12:41:50;30.37;;;13.70;;
8500;SDS011;4288;48.484;10.024;2024-01-10T12:44:18;20.70;;;11.53;;
8500;SDS011;4288;48.484;10.024;2024-01-10T12:46:49;27.50;;;12.30;;
8500;SDS011;4288;48.484;10.024;2024-01-10T12:49:18;34.13;;;15.90;;
8500;SDS011;4288;48.484;10.024;2024-01-10T12:51:46;32.90;;;15.23;;
8500;SDS011;4288;48.484;10.024;2024-01-10T12:54:15;28.57;;;13.97;;
8500;SDS011;4288;48.484;10.024;2024-01-10T12:56:43;31.27;;;15.23;;
8500;SDS011;4288;48.484;10.024;2024-01-10T12:59:11;26.63;;;12.13;;
8500;SDS011;4288;48.484;10.024;2024-01-10T13:01:38;27.93;;;13.03;;
8500;SDS011;4288;48.484;10.024;2024-01-10T13:04:06;27.73;;;11.70;;
8500;SDS011;4288;48.484;10.024;2024-01-10T13:06:34;24.63;;;12.70;;
8500;SDS011;4288;48.484;10.024;2024-01-10T13:09:01;32.00;;;12.87;;
8500;SDS011;4288;48.484;10.024;2024-01-10T13:11:32;23.70;;;12.07;;
8500;SDS011;4288;48.484;10.024;2024-01-10T13:14:00;29.57;;;14.87;;
8500;SDS011;4288;48.484;10.024;2024-01-10T13:16:27;24.23;;;12.07;;
8500;SDS011;4288;48.484;10.024;2024-01-10T13:18:55;24.20;;;11.47;;
8500;SDS011;4288;48.484;10.024;2024-01-10T13:21:24;29.80;;;14.07;;
8500;SDS011;4288;48.484;10.024;2024-01-10T13:23:51;29.47;;;12.90;;
8500;SDS011;4288;48.484;10.024;2024-01-10T13:26:19;27.03;;;12.30;;
8500;SDS011;4288;48.484;10.024;2024-01-10T13:28:49;34.63;;;13.60;;
8500;SDS011;4288;48.484;10.024;2024-01-10T13:31:17;25.83;;;13.80;;
8500;SDS011;4288;48.484;10.024;2024-01-10T13:33:44;34.93;;;14.03;;
8500;SDS011;4288;48.484;10.024;2024-01-10T13:36:11;33.80;;;16.40;;
8500;SDS011;4288;48.484;10.024;2024-01-10T13:38:39;31.63;;;15.27;;
8500;SDS011;4288;48.484;10.024;2024-01-10T13:41:06;23.30;;;12.50;;
8500;SDS011;4288;48.484;10.024;2024-01-10T13:43:34;37.17;;;14.57;;
8500;SDS011;4288;48.484;10.024;2024-01-10T13:46:02;28.10;;;14.73;;
8500;SDS011;4288;48.484;10.024;2024-01-10T13:48:29;25.83;;;13.03;;
8500;SDS011;4288;48.484;10.024;2024-01-10T13:50:56;28.67;;;15.00;;
8500;SDS011;4288;48.484;10.024;2024-01-10T13:53:24;31.77;;;15.27;;
8500;SDS011;4288;48.484;10.024;2024-01-10T13:55:51;26.83;;;13.40;;
8500;SDS011;4288;48.484;10.024;2024-01-10T13:58:19;33.73;;;13.80;;
8500;SDS011;4288;48.484;10.024;2024-01-10T14:00:48;28.40;;;14.93;;
8500;SDS011;4288;48.484;10.024;2024-01-10T14:03:17;26.87;;;13.30;;
8500;SDS011;4288;48.484;10.024;2024-01-10T14:05:45;26.63;;;12.13;;
8500;SDS011;4288;48.484;10.024;2024-01-10T14:08:12;31.60;;;14.27;;
8500;SDS011;4288;48.484;10.024;2024-01-10T14:10:40;29.03;;;13.20;;
8500;SDS011;4288;48.484;10.024;2024-01-10T14:13:08;30.87;;;15.80;;
8500;SDS011;4288;48.484;10.024;2024-01-10T14:15:35;29.57;;;14.73;;
8500;SDS011;4288;48.484;10.024;2024-01-10T14:18:03;34.43;;;15.97;;
8500;SDS011;4288;48.484;10.024;2024-01-10T14:20:32;30.20;;;15.37;;
8500;SDS011;4288;48.484;10.024;2024-01-10T14:23:01;32.17;;;14.33;;
8500;SDS011;4288;48.484;10.024;2024-01-10T14:25:28;32.67;;;13.83;;
8500;SDS011;4288;48.484;10.024;2024-01-10T14:27:55;27.40;;;13.63;;
8500;SDS011;4288;48.484;10.024;2024-01-10T14:30:24;31.67;;;15.10;;
8500;SDS011;4288;48.484;10.024;2024-01-10T14:32:52;32.17;;;14.73;;
8500;SDS011;4288;48.484;10.024;2024-01-10T14:35:19;32.43;;;15.50;;
8500;SDS011;4288;48.484;10.024;2024-01-10T14:37:48;30.20;;;14.67;;
8500;SDS011;4288;48.484;10.024;2024-01-10T14:40:15;38.70;;;15.43;;
8500;SDS011;4288;48.484;10.024;2024-01-10T14:42:43;35.80;;;16.03;;
8500;SDS011;4288;48.484;10.024;2024-01-10T14:45:10;34.00;;;13.63;;